FDX1546 KAUS-KMEM
Flight info
| Callsign | FDX1546 |
|---|---|
| Flight time | 1h 22m |
| Altitude | 35000 |
| Route | ILEXY4 ZENZI LFK ELD HOBRK4 |
| Aircraft | MD11/H-SDE1E2E3FGHIJ2J3J4J5M1RWXY/LB1D1 |
Departure
| Time | 2026-05-04 02:02 |
|---|---|
| Airport | Austin Bergstrom International Airport (KAUS) |
Arrival
| Time | 2026-05-04 03:25 |
|---|---|
| Airport | Memphis International Airport (KMEM) |
| Time | Latitude | Longitude | Altitude | Speed | Heading |
|---|---|---|---|---|---|
| 2026-05-04 01:26 | 30.21666 | -97.67091 | 535 ft | 0 kts | 9° |
| 2026-05-04 01:48 | 30.21654 | -97.67093 | 535 ft | 2 kts | 9° |
| 2026-05-04 01:49 | 30.21638 | -97.67096 | 541 ft | 2 kts | 9° |
| 2026-05-04 01:49 | 30.21622 | -97.67100 | 541 ft | 2 kts | 9° |
| 2026-05-04 01:49 | 30.21605 | -97.67103 | 535 ft | 2 kts | 9° |
| 2026-05-04 01:49 | 30.21589 | -97.67106 | 537 ft | 2 kts | 10° |
| 2026-05-04 01:50 | 30.21583 | -97.67107 | 540 ft | 0 kts | 11° |
| 2026-05-04 01:56 | 30.21587 | -97.67109 | 535 ft | 1 kts | 352° |
| 2026-05-04 01:56 | 30.21590 | -97.67113 | 535 ft | 1 kts | 327° |
| 2026-05-04 01:57 | 30.21597 | -97.67130 | 538 ft | 5 kts | 299° |
| 2026-05-04 01:57 | 30.21611 | -97.67178 | 535 ft | 7 kts | 282° |
| 2026-05-04 01:57 | 30.21622 | -97.67246 | 535 ft | 10 kts | 281° |
| 2026-05-04 01:57 | 30.21636 | -97.67335 | 539 ft | 12 kts | 280° |
| 2026-05-04 01:58 | 30.21611 | -97.67420 | 535 ft | 11 kts | 220° |
| 2026-05-04 01:58 | 30.21562 | -97.67450 | 535 ft | 13 kts | 205° |
| 2026-05-04 01:58 | 30.21447 | -97.67509 | 535 ft | 15 kts | 204° |
| 2026-05-04 01:58 | 30.21366 | -97.67569 | 536 ft | 13 kts | 238° |
| 2026-05-04 01:59 | 30.21351 | -97.67641 | 534 ft | 14 kts | 265° |
| 2026-05-04 01:59 | 30.21348 | -97.67763 | 534 ft | 15 kts | 269° |
| 2026-05-04 01:59 | 30.21347 | -97.67801 | 537 ft | 0 kts | 269° |
| 2026-05-04 02:00 | 30.21347 | -97.67802 | 537 ft | 1 kts | 269° |
| 2026-05-04 02:00 | 30.21346 | -97.67826 | 534 ft | 5 kts | 269° |
| 2026-05-04 02:01 | 30.21346 | -97.67877 | 533 ft | 8 kts | 269° |
| 2026-05-04 02:01 | 30.21332 | -97.67921 | 533 ft | 4 kts | 222° |
| 2026-05-04 02:01 | 30.21300 | -97.67932 | 533 ft | 6 kts | 187° |
| 2026-05-04 02:01 | 30.21243 | -97.67933 | 533 ft | 16 kts | 179° |
| 2026-05-04 02:02 | 30.20833 | -97.67923 | 535 ft | 107 kts | 178° |
| 2026-05-04 02:02 | 30.19784 | -97.67899 | 578 ft | 186 kts | 179° |
| 2026-05-04 02:02 | 30.18407 | -97.67862 | 1295 ft | 191 kts | 179° |
| 2026-05-04 02:02 | 30.17190 | -97.67835 | 2719 ft | 166 kts | 179° |
| 2026-05-04 02:03 | 30.16036 | -97.67809 | 3353 ft | 159 kts | 179° |
| 2026-05-04 02:03 | 30.14930 | -97.67781 | 3587 ft | 158 kts | 178° |
| 2026-05-04 02:03 | 30.13728 | -97.67749 | 3967 ft | 185 kts | 179° |
| 2026-05-04 02:03 | 30.12383 | -97.67702 | 4642 ft | 199 kts | 179° |
| 2026-05-04 02:04 | 30.10972 | -97.67645 | 5365 ft | 207 kts | 179° |
| 2026-05-04 02:04 | 30.09538 | -97.67476 | 6086 ft | 215 kts | 166° |
| 2026-05-04 02:04 | 30.08148 | -97.66757 | 6778 ft | 221 kts | 157° |
| 2026-05-04 02:04 | 30.06742 | -97.66011 | 7474 ft | 224 kts | 160° |
| 2026-05-04 02:05 | 30.05292 | -97.65287 | 8173 ft | 233 kts | 160° |
| 2026-05-04 02:05 | 30.03757 | -97.64520 | 8876 ft | 245 kts | 160° |
| 2026-05-04 02:05 | 30.02224 | -97.63591 | 9613 ft | 257 kts | 144° |
| 2026-05-04 02:05 | 30.01083 | -97.61993 | 10298 ft | 268 kts | 116° |
| 2026-05-04 02:06 | 30.00664 | -97.59900 | 10988 ft | 273 kts | 87° |
| 2026-05-04 02:06 | 30.01098 | -97.57787 | 11698 ft | 272 kts | 59° |
| 2026-05-04 02:06 | 30.02172 | -97.56016 | 12496 ft | 268 kts | 46° |
| 2026-05-04 02:06 | 30.03378 | -97.54376 | 13314 ft | 268 kts | 46° |
| 2026-05-04 02:07 | 30.04581 | -97.52721 | 14104 ft | 268 kts | 46° |
| 2026-05-04 02:07 | 30.05771 | -97.51067 | 14808 ft | 268 kts | 45° |
| 2026-05-04 02:07 | 30.06966 | -97.49407 | 15506 ft | 268 kts | 45° |
| 2026-05-04 02:07 | 30.08185 | -97.47724 | 15788 ft | 289 kts | 45° |
| 2026-05-04 02:08 | 30.09541 | -97.45867 | 15937 ft | 314 kts | 45° |
| 2026-05-04 02:08 | 30.11010 | -97.43854 | 16083 ft | 340 kts | 45° |
| 2026-05-04 02:08 | 30.12596 | -97.41679 | 16224 ft | 365 kts | 45° |
| 2026-05-04 02:08 | 30.14287 | -97.39358 | 16363 ft | 388 kts | 46° |
| 2026-05-04 02:09 | 30.16078 | -97.36895 | 16514 ft | 409 kts | 46° |
| 2026-05-04 02:09 | 30.17901 | -97.34377 | 17082 ft | 415 kts | 46° |
| 2026-05-04 02:09 | 30.19761 | -97.31802 | 17729 ft | 419 kts | 45° |
| 2026-05-04 02:09 | 30.21642 | -97.29194 | 18370 ft | 424 kts | 45° |
| 2026-05-04 02:10 | 30.23544 | -97.26557 | 18891 ft | 429 kts | 45° |
| 2026-05-04 02:10 | 30.25468 | -97.23889 | 19388 ft | 434 kts | 45° |
| 2026-05-04 02:10 | 30.27383 | -97.21233 | 19881 ft | 439 kts | 45° |
| 2026-05-04 02:10 | 30.29250 | -97.18384 | 20311 ft | 449 kts | 54° |
| 2026-05-04 02:11 | 30.30634 | -97.15102 | 20785 ft | 460 kts | 64° |
| 2026-05-04 02:11 | 30.31712 | -97.11573 | 21252 ft | 467 kts | 68° |
| 2026-05-04 02:11 | 30.32684 | -97.07945 | 21744 ft | 472 kts | 69° |
| 2026-05-04 02:11 | 30.33595 | -97.04261 | 22226 ft | 479 kts | 72° |
| 2026-05-04 02:12 | 30.34248 | -97.00495 | 22732 ft | 486 kts | 79° |
| 2026-05-04 02:12 | 30.34543 | -96.96564 | 23210 ft | 494 kts | 86° |
| 2026-05-04 02:12 | 30.34530 | -96.92552 | 23701 ft | 501 kts | 90° |
| 2026-05-04 02:12 | 30.34325 | -96.88497 | 24145 ft | 505 kts | 92° |
| 2026-05-04 02:13 | 30.34037 | -96.84435 | 24621 ft | 509 kts | 93° |
| 2026-05-04 02:13 | 30.33727 | -96.80320 | 25105 ft | 513 kts | 93° |
| 2026-05-04 02:13 | 30.33430 | -96.76240 | 25599 ft | 516 kts | 92° |
| 2026-05-04 02:13 | 30.33145 | -96.72084 | 26089 ft | 520 kts | 92° |
| 2026-05-04 02:14 | 30.32874 | -96.67888 | 26574 ft | 524 kts | 92° |
| 2026-05-04 02:14 | 30.32610 | -96.63656 | 27054 ft | 527 kts | 91° |
| 2026-05-04 02:14 | 30.32347 | -96.59396 | 27517 ft | 531 kts | 91° |
| 2026-05-04 02:14 | 30.32083 | -96.55119 | 27975 ft | 535 kts | 91° |
| 2026-05-04 02:15 | 30.31815 | -96.50833 | 28413 ft | 539 kts | 91° |
| 2026-05-04 02:15 | 30.31539 | -96.46501 | 28840 ft | 543 kts | 91° |
| 2026-05-04 02:15 | 30.31256 | -96.42113 | 29291 ft | 547 kts | 91° |
| 2026-05-04 02:15 | 30.30969 | -96.37692 | 29733 ft | 551 kts | 91° |
| 2026-05-04 02:16 | 30.30680 | -96.33243 | 30126 ft | 555 kts | 91° |
| 2026-05-04 02:16 | 30.30389 | -96.28759 | 30438 ft | 559 kts | 91° |
| 2026-05-04 02:16 | 30.30099 | -96.24321 | 30748 ft | 562 kts | 91° |
| 2026-05-04 02:16 | 30.29803 | -96.19801 | 31125 ft | 563 kts | 91° |
| 2026-05-04 02:17 | 30.29518 | -96.15295 | 31503 ft | 563 kts | 90° |
| 2026-05-04 02:17 | 30.29464 | -96.10763 | 31885 ft | 559 kts | 82° |
| 2026-05-04 02:17 | 30.29935 | -96.06317 | 32281 ft | 552 kts | 72° |
| 2026-05-04 02:17 | 30.30963 | -96.02077 | 32682 ft | 543 kts | 62° |
| 2026-05-04 02:18 | 30.32492 | -95.98186 | 33083 ft | 531 kts | 52° |
| 2026-05-04 02:18 | 30.34503 | -95.94657 | 33487 ft | 518 kts | 42° |
| 2026-05-04 02:18 | 30.36878 | -95.91569 | 33893 ft | 507 kts | 35° |
| 2026-05-04 02:18 | 30.39373 | -95.88674 | 34254 ft | 505 kts | 35° |
| 2026-05-04 02:19 | 30.41786 | -95.85770 | 34627 ft | 507 kts | 37° |
| 2026-05-04 02:19 | 30.44138 | -95.82694 | 34911 ft | 512 kts | 39° |
| 2026-05-04 02:19 | 30.48575 | -95.76257 | 35041 ft | 511 kts | 43° |
| 2026-05-04 02:20 | 30.52877 | -95.69656 | 35081 ft | 510 kts | 43° |
| 2026-05-04 02:20 | 30.57158 | -95.63100 | 35107 ft | 509 kts | 43° |
| 2026-05-04 02:21 | 30.61444 | -95.56581 | 35110 ft | 509 kts | 43° |
| 2026-05-04 02:21 | 30.65745 | -95.50046 | 35124 ft | 509 kts | 43° |
| 2026-05-04 02:22 | 30.70036 | -95.43513 | 35127 ft | 509 kts | 43° |
| 2026-05-04 02:22 | 30.74300 | -95.37010 | 35120 ft | 509 kts | 43° |
| 2026-05-04 02:23 | 30.78595 | -95.30446 | 35122 ft | 510 kts | 43° |
| 2026-05-04 02:23 | 30.82895 | -95.23864 | 35118 ft | 510 kts | 43° |
| 2026-05-04 02:24 | 30.87163 | -95.17255 | 35119 ft | 511 kts | 44° |
| 2026-05-04 02:24 | 30.91416 | -95.10602 | 35120 ft | 512 kts | 44° |
| 2026-05-04 02:25 | 30.95675 | -95.03947 | 35116 ft | 512 kts | 43° |
| 2026-05-04 02:25 | 30.99916 | -94.97324 | 35118 ft | 512 kts | 43° |
| 2026-05-04 02:26 | 31.04187 | -94.90646 | 35118 ft | 513 kts | 43° |
| 2026-05-04 02:26 | 31.08428 | -94.84004 | 35122 ft | 513 kts | 43° |
| 2026-05-04 02:27 | 31.12695 | -94.77307 | 35121 ft | 513 kts | 43° |
| 2026-05-04 02:27 | 31.17106 | -94.70809 | 35120 ft | 500 kts | 34° |
| 2026-05-04 02:28 | 31.22292 | -94.65703 | 35122 ft | 485 kts | 25° |
| 2026-05-04 02:28 | 31.27749 | -94.61036 | 35123 ft | 485 kts | 25° |
| 2026-05-04 02:29 | 31.33155 | -94.56272 | 35117 ft | 486 kts | 26° |
| 2026-05-04 02:29 | 31.38474 | -94.51433 | 35118 ft | 487 kts | 27° |
| 2026-05-04 02:30 | 31.43820 | -94.46523 | 35129 ft | 487 kts | 27° |
| 2026-05-04 02:30 | 31.49121 | -94.41653 | 35129 ft | 486 kts | 27° |
| 2026-05-04 02:31 | 31.54456 | -94.36752 | 35127 ft | 486 kts | 27° |
| 2026-05-04 02:31 | 31.59749 | -94.31885 | 35124 ft | 485 kts | 27° |
| 2026-05-04 02:32 | 31.65070 | -94.26984 | 35129 ft | 485 kts | 27° |
| 2026-05-04 02:32 | 31.70349 | -94.22114 | 35127 ft | 485 kts | 27° |
| 2026-05-04 02:33 | 31.75670 | -94.17200 | 35126 ft | 485 kts | 27° |
| 2026-05-04 02:33 | 31.80976 | -94.12289 | 35121 ft | 484 kts | 27° |
| 2026-05-04 02:34 | 31.86238 | -94.07388 | 35121 ft | 484 kts | 27° |
| 2026-05-04 02:34 | 31.91521 | -94.02456 | 35117 ft | 484 kts | 27° |
| 2026-05-04 02:35 | 31.96783 | -93.97549 | 35115 ft | 484 kts | 27° |
| 2026-05-04 02:35 | 32.02061 | -93.92625 | 35110 ft | 483 kts | 27° |
| 2026-05-04 02:36 | 32.07314 | -93.87717 | 35109 ft | 483 kts | 27° |
| 2026-05-04 02:36 | 32.12561 | -93.82808 | 35107 ft | 483 kts | 27° |
| 2026-05-04 02:37 | 32.17822 | -93.77878 | 35101 ft | 482 kts | 27° |
| 2026-05-04 02:37 | 32.23080 | -93.72942 | 35102 ft | 482 kts | 27° |
| 2026-05-04 02:38 | 32.28309 | -93.68027 | 35091 ft | 482 kts | 27° |
| 2026-05-04 02:38 | 32.33549 | -93.63094 | 35098 ft | 481 kts | 27° |
| 2026-05-04 02:39 | 32.38786 | -93.58156 | 35093 ft | 481 kts | 27° |
| 2026-05-04 02:39 | 32.44016 | -93.53218 | 35094 ft | 481 kts | 27° |
| 2026-05-04 02:40 | 32.49235 | -93.48269 | 35098 ft | 481 kts | 28° |
| 2026-05-04 02:40 | 32.54413 | -93.43322 | 35110 ft | 480 kts | 28° |
| 2026-05-04 02:41 | 32.59628 | -93.38343 | 35113 ft | 480 kts | 28° |
| 2026-05-04 02:41 | 32.64847 | -93.33361 | 35115 ft | 480 kts | 28° |
| 2026-05-04 02:42 | 32.70018 | -93.28421 | 35112 ft | 480 kts | 28° |
| 2026-05-04 02:42 | 32.75225 | -93.23440 | 35115 ft | 479 kts | 28° |
| 2026-05-04 02:43 | 32.80389 | -93.18491 | 35099 ft | 479 kts | 28° |
| 2026-05-04 02:43 | 32.85597 | -93.13492 | 35096 ft | 479 kts | 28° |
| 2026-05-04 02:44 | 32.90757 | -93.08531 | 35101 ft | 479 kts | 28° |
| 2026-05-04 02:44 | 32.95953 | -93.03529 | 35087 ft | 479 kts | 29° |
| 2026-05-04 02:45 | 33.01148 | -92.98519 | 35096 ft | 479 kts | 29° |
| 2026-05-04 02:45 | 33.06298 | -92.93545 | 35093 ft | 479 kts | 29° |
| 2026-05-04 02:46 | 33.11482 | -92.88528 | 35094 ft | 479 kts | 30° |
| 2026-05-04 02:46 | 33.15755 | -92.84303 | 35094 ft | 480 kts | 31° |
| 2026-05-04 02:47 | 33.20876 | -92.79159 | 35092 ft | 480 kts | 31° |
| 2026-05-04 02:47 | 33.26629 | -92.72879 | 35095 ft | 492 kts | 41° |
| 2026-05-04 02:48 | 33.30106 | -92.67339 | 35094 ft | 500 kts | 47° |
| 2026-05-04 02:48 | 33.33932 | -92.60436 | 35090 ft | 501 kts | 48° |
| 2026-05-04 02:49 | 33.37824 | -92.53539 | 35084 ft | 499 kts | 47° |
| 2026-05-04 02:49 | 33.41781 | -92.46717 | 35082 ft | 498 kts | 47° |
| 2026-05-04 02:50 | 33.45723 | -92.39956 | 34602 ft | 493 kts | 47° |
| 2026-05-04 02:50 | 33.47696 | -92.36569 | 33425 ft | 496 kts | 48° |
| 2026-05-04 02:50 | 33.49674 | -92.33168 | 32179 ft | 497 kts | 49° |
| 2026-05-04 02:51 | 33.51652 | -92.29759 | 30946 ft | 499 kts | 49° |
| 2026-05-04 02:51 | 33.53640 | -92.26331 | 29578 ft | 501 kts | 50° |
| 2026-05-04 02:51 | 33.55632 | -92.22889 | 28095 ft | 502 kts | 50° |
| 2026-05-04 02:51 | 33.57630 | -92.19433 | 26609 ft | 504 kts | 51° |
| 2026-05-04 02:52 | 33.59606 | -92.16013 | 25146 ft | 505 kts | 51° |
| 2026-05-04 02:52 | 33.61600 | -92.12555 | 24054 ft | 498 kts | 52° |
| 2026-05-04 02:52 | 33.63562 | -92.09145 | 23730 ft | 502 kts | 52° |
| 2026-05-04 02:52 | 33.65561 | -92.05677 | 23346 ft | 509 kts | 52° |
| 2026-05-04 02:53 | 33.67567 | -92.02195 | 23101 ft | 505 kts | 52° |
| 2026-05-04 02:53 | 33.69568 | -91.98711 | 23088 ft | 506 kts | 52° |
| 2026-05-04 02:53 | 33.71573 | -91.95219 | 23376 ft | 506 kts | 52° |
| 2026-05-04 02:53 | 33.73554 | -91.91757 | 23527 ft | 508 kts | 52° |
| 2026-05-04 02:54 | 33.75519 | -91.88278 | 23145 ft | 501 kts | 53° |
| 2026-05-04 02:54 | 33.77480 | -91.84775 | 23093 ft | 505 kts | 53° |
| 2026-05-04 02:54 | 33.79442 | -91.81269 | 23080 ft | 507 kts | 53° |
| 2026-05-04 02:54 | 33.81406 | -91.77761 | 23078 ft | 507 kts | 53° |
| 2026-05-04 02:55 | 33.85327 | -91.70767 | 23080 ft | 508 kts | 53° |
| 2026-05-04 02:55 | 33.87305 | -91.67240 | 23078 ft | 508 kts | 53° |
| 2026-05-04 02:55 | 33.89279 | -91.63718 | 23079 ft | 507 kts | 53° |
| 2026-05-04 02:56 | 33.91224 | -91.60243 | 23078 ft | 507 kts | 53° |
| 2026-05-04 02:56 | 33.93248 | -91.56777 | 23077 ft | 505 kts | 50° |
| 2026-05-04 02:56 | 33.95437 | -91.53470 | 23077 ft | 503 kts | 46° |
| 2026-05-04 02:56 | 33.97733 | -91.50276 | 23107 ft | 504 kts | 45° |
| 2026-05-04 02:57 | 34.00061 | -91.47142 | 23024 ft | 490 kts | 45° |
| 2026-05-04 02:57 | 34.02280 | -91.44160 | 22706 ft | 465 kts | 45° |
| 2026-05-04 02:57 | 34.04396 | -91.41302 | 22529 ft | 463 kts | 45° |
| 2026-05-04 02:57 | 34.06546 | -91.38384 | 22327 ft | 465 kts | 45° |
| 2026-05-04 02:58 | 34.08688 | -91.35455 | 22134 ft | 464 kts | 45° |
| 2026-05-04 02:58 | 34.10816 | -91.32526 | 21935 ft | 465 kts | 45° |
| 2026-05-04 02:58 | 34.12945 | -91.29587 | 21748 ft | 462 kts | 46° |
| 2026-05-04 02:58 | 34.15043 | -91.26681 | 21552 ft | 450 kts | 46° |
| 2026-05-04 02:59 | 34.17037 | -91.23907 | 21355 ft | 426 kts | 46° |
| 2026-05-04 02:59 | 34.18931 | -91.21269 | 21161 ft | 405 kts | 45° |
| 2026-05-04 02:59 | 34.20758 | -91.18730 | 20959 ft | 397 kts | 45° |
| 2026-05-04 02:59 | 34.22561 | -91.16230 | 20778 ft | 392 kts | 45° |
| 2026-05-04 03:00 | 34.24350 | -91.13755 | 20588 ft | 389 kts | 45° |
| 2026-05-04 03:00 | 34.26127 | -91.11298 | 20417 ft | 387 kts | 45° |
| 2026-05-04 03:00 | 34.27878 | -91.08876 | 20227 ft | 386 kts | 45° |
| 2026-05-04 03:00 | 34.29641 | -91.06433 | 20047 ft | 385 kts | 45° |
| 2026-05-04 03:01 | 34.31402 | -91.03992 | 19874 ft | 383 kts | 45° |
| 2026-05-04 03:01 | 34.33154 | -91.01560 | 19686 ft | 382 kts | 45° |
| 2026-05-04 03:01 | 34.34904 | -90.99128 | 19498 ft | 381 kts | 45° |
| 2026-05-04 03:01 | 34.36643 | -90.96711 | 19322 ft | 380 kts | 45° |
| 2026-05-04 03:02 | 34.38377 | -90.94298 | 19146 ft | 378 kts | 46° |
| 2026-05-04 03:02 | 34.40097 | -90.91902 | 18973 ft | 377 kts | 45° |
| 2026-05-04 03:02 | 34.41821 | -90.89500 | 18797 ft | 376 kts | 46° |
| 2026-05-04 03:02 | 34.43515 | -90.87138 | 18625 ft | 375 kts | 46° |
| 2026-05-04 03:03 | 34.45225 | -90.84753 | 18447 ft | 374 kts | 46° |
| 2026-05-04 03:03 | 34.46930 | -90.82373 | 18269 ft | 372 kts | 46° |
| 2026-05-04 03:03 | 34.48622 | -90.80009 | 18070 ft | 371 kts | 46° |
| 2026-05-04 03:03 | 34.50299 | -90.77634 | 17862 ft | 370 kts | 46° |
| 2026-05-04 03:04 | 34.51947 | -90.75242 | 17673 ft | 369 kts | 47° |
| 2026-05-04 03:04 | 34.53585 | -90.72844 | 17467 ft | 367 kts | 47° |
| 2026-05-04 03:04 | 34.55192 | -90.70485 | 17287 ft | 366 kts | 47° |
| 2026-05-04 03:04 | 34.56815 | -90.68105 | 16962 ft | 365 kts | 47° |
| 2026-05-04 03:05 | 34.58430 | -90.65738 | 16610 ft | 362 kts | 47° |
| 2026-05-04 03:05 | 34.60034 | -90.63386 | 16247 ft | 360 kts | 47° |
| 2026-05-04 03:05 | 34.61643 | -90.61074 | 15803 ft | 356 kts | 45° |
| 2026-05-04 03:05 | 34.63314 | -90.58860 | 15711 ft | 354 kts | 43° |
| 2026-05-04 03:06 | 34.65012 | -90.56696 | 15511 ft | 353 kts | 43° |
| 2026-05-04 03:06 | 34.66715 | -90.54553 | 15292 ft | 352 kts | 43° |
| 2026-05-04 03:06 | 34.68413 | -90.52417 | 15046 ft | 350 kts | 43° |
| 2026-05-04 03:06 | 34.70081 | -90.50316 | 14825 ft | 349 kts | 43° |
| 2026-05-04 03:07 | 34.71760 | -90.48198 | 14586 ft | 347 kts | 43° |
| 2026-05-04 03:07 | 34.73435 | -90.46080 | 14348 ft | 346 kts | 43° |
| 2026-05-04 03:07 | 34.75099 | -90.43973 | 14113 ft | 344 kts | 43° |
| 2026-05-04 03:07 | 34.76760 | -90.41868 | 13876 ft | 343 kts | 43° |
| 2026-05-04 03:08 | 34.78412 | -90.39773 | 13613 ft | 342 kts | 43° |
| 2026-05-04 03:08 | 34.80038 | -90.37709 | 13354 ft | 341 kts | 43° |
| 2026-05-04 03:08 | 34.81677 | -90.35628 | 13140 ft | 339 kts | 43° |
| 2026-05-04 03:08 | 34.83309 | -90.33554 | 12892 ft | 338 kts | 44° |
| 2026-05-04 03:09 | 34.84933 | -90.31488 | 12642 ft | 337 kts | 44° |
| 2026-05-04 03:09 | 34.86539 | -90.29444 | 12435 ft | 337 kts | 44° |
| 2026-05-04 03:09 | 34.88175 | -90.27361 | 12189 ft | 335 kts | 44° |
| 2026-05-04 03:09 | 34.89761 | -90.25339 | 11826 ft | 332 kts | 44° |
| 2026-05-04 03:10 | 34.91347 | -90.23316 | 11280 ft | 326 kts | 44° |
| 2026-05-04 03:10 | 34.92855 | -90.21390 | 10773 ft | 309 kts | 45° |
| 2026-05-04 03:10 | 34.94295 | -90.19547 | 10402 ft | 290 kts | 45° |
| 2026-05-04 03:10 | 34.95626 | -90.17841 | 10328 ft | 265 kts | 44° |
| 2026-05-04 03:11 | 34.96859 | -90.16263 | 10247 ft | 252 kts | 44° |
| 2026-05-04 03:11 | 34.98054 | -90.14738 | 10178 ft | 253 kts | 44° |
| 2026-05-04 03:11 | 34.99274 | -90.13182 | 10066 ft | 254 kts | 44° |
| 2026-05-04 03:11 | 35.00603 | -90.11771 | 9838 ft | 254 kts | 30° |
| 2026-05-04 03:12 | 35.02270 | -90.11069 | 9364 ft | 254 kts | 5° |
| 2026-05-04 03:12 | 35.04002 | -90.10959 | 9112 ft | 247 kts | 359° |
| 2026-05-04 03:12 | 35.05711 | -90.10935 | 8802 ft | 245 kts | 359° |
| 2026-05-04 03:12 | 35.07396 | -90.10914 | 8472 ft | 244 kts | 358° |
| 2026-05-04 03:13 | 35.09088 | -90.10891 | 8122 ft | 243 kts | 358° |
| 2026-05-04 03:13 | 35.10775 | -90.10898 | 7827 ft | 241 kts | 356° |
| 2026-05-04 03:13 | 35.12451 | -90.10922 | 7575 ft | 238 kts | 356° |
| 2026-05-04 03:13 | 35.14104 | -90.10948 | 7319 ft | 237 kts | 356° |
| 2026-05-04 03:14 | 35.15751 | -90.10975 | 7058 ft | 237 kts | 356° |
| 2026-05-04 03:14 | 35.17382 | -90.11001 | 6805 ft | 236 kts | 356° |
| 2026-05-04 03:14 | 35.19025 | -90.11026 | 6543 ft | 236 kts | 355° |
| 2026-05-04 03:14 | 35.20666 | -90.11051 | 6274 ft | 235 kts | 355° |
| 2026-05-04 03:15 | 35.22300 | -90.11075 | 6006 ft | 234 kts | 355° |
| 2026-05-04 03:15 | 35.23938 | -90.11100 | 5643 ft | 237 kts | 354° |
| 2026-05-04 03:15 | 35.25610 | -90.11126 | 5254 ft | 241 kts | 354° |
| 2026-05-04 03:15 | 35.27291 | -90.11151 | 4878 ft | 243 kts | 353° |
| 2026-05-04 03:16 | 35.28964 | -90.11178 | 4504 ft | 245 kts | 353° |
| 2026-05-04 03:16 | 35.30684 | -90.11206 | 4129 ft | 247 kts | 353° |
| 2026-05-04 03:16 | 35.32385 | -90.11237 | 3986 ft | 239 kts | 353° |
| 2026-05-04 03:16 | 35.34025 | -90.11186 | 3852 ft | 240 kts | 4° |
| 2026-05-04 03:17 | 35.35575 | -90.10365 | 3678 ft | 249 kts | 36° |
| 2026-05-04 03:17 | 35.36644 | -90.08691 | 3448 ft | 254 kts | 68° |
| 2026-05-04 03:17 | 35.36992 | -90.06601 | 3256 ft | 250 kts | 91° |
| 2026-05-04 03:17 | 35.36654 | -90.04581 | 3034 ft | 240 kts | 122° |
| 2026-05-04 03:18 | 35.35649 | -90.03120 | 2979 ft | 219 kts | 147° |
| 2026-05-04 03:18 | 35.34417 | -90.01975 | 2965 ft | 222 kts | 149° |
| 2026-05-04 03:18 | 35.33202 | -90.00827 | 2965 ft | 223 kts | 148° |
| 2026-05-04 03:18 | 35.31967 | -89.99691 | 2945 ft | 218 kts | 157° |
| 2026-05-04 03:19 | 35.30575 | -89.99236 | 2988 ft | 203 kts | 184° |
| 2026-05-04 03:19 | 35.29158 | -89.99256 | 2979 ft | 202 kts | 186° |
| 2026-05-04 03:19 | 35.27765 | -89.99239 | 2975 ft | 193 kts | 184° |
| 2026-05-04 03:19 | 35.26522 | -89.99193 | 2950 ft | 181 kts | 185° |
| 2026-05-04 03:20 | 35.25329 | -89.99164 | 2949 ft | 155 kts | 186° |
| 2026-05-04 03:20 | 35.24214 | -89.99142 | 2991 ft | 158 kts | 186° |
| 2026-05-04 03:20 | 35.23089 | -89.99120 | 2986 ft | 161 kts | 186° |
| 2026-05-04 03:20 | 35.21963 | -89.99097 | 2983 ft | 163 kts | 186° |
| 2026-05-04 03:21 | 35.20837 | -89.99073 | 2986 ft | 161 kts | 187° |
| 2026-05-04 03:21 | 35.19730 | -89.99050 | 2985 ft | 161 kts | 186° |
| 2026-05-04 03:21 | 35.18596 | -89.99029 | 2946 ft | 166 kts | 186° |
| 2026-05-04 03:21 | 35.17460 | -89.99004 | 2739 ft | 161 kts | 185° |
| 2026-05-04 03:22 | 35.16348 | -89.98980 | 2515 ft | 158 kts | 185° |
| 2026-05-04 03:22 | 35.15250 | -89.98958 | 2318 ft | 157 kts | 185° |
| 2026-05-04 03:22 | 35.14165 | -89.98935 | 2105 ft | 155 kts | 184° |
| 2026-05-04 03:22 | 35.13087 | -89.98911 | 1901 ft | 154 kts | 184° |
| 2026-05-04 03:23 | 35.12019 | -89.98891 | 1704 ft | 153 kts | 184° |
| 2026-05-04 03:23 | 35.10956 | -89.98870 | 1491 ft | 153 kts | 182° |
| 2026-05-04 03:23 | 35.09899 | -89.98848 | 1287 ft | 154 kts | 181° |
| 2026-05-04 03:23 | 35.08833 | -89.98829 | 1099 ft | 155 kts | 181° |
| 2026-05-04 03:24 | 35.07737 | -89.98810 | 815 ft | 159 kts | 180° |
| 2026-05-04 03:24 | 35.06644 | -89.98785 | 631 ft | 163 kts | 178° |
| 2026-05-04 03:24 | 35.05337 | -89.98744 | 460 ft | 206 kts | 179° |
| 2026-05-04 03:24 | 35.04055 | -89.98720 | 334 ft | 157 kts | 179° |
| 2026-05-04 03:25 | 35.03220 | -89.98700 | 337 ft | 83 kts | 179° |
| 2026-05-04 03:25 | 35.02865 | -89.98683 | 333 ft | 33 kts | 169° |
| 2026-05-04 03:25 | 35.02747 | -89.98634 | 332 ft | 6 kts | 152° |
| 2026-05-04 03:25 | 35.02746 | -89.98633 | 332 ft | 0 kts | 152° |
| 2026-05-04 03:27 | 35.02745 | -89.98633 | 332 ft | 2 kts | 152° |
| 2026-05-04 03:27 | 35.02722 | -89.98613 | 334 ft | 5 kts | 142° |
| 2026-05-04 03:28 | 35.02690 | -89.98582 | 332 ft | 7 kts | 142° |
| 2026-05-04 03:28 | 35.02657 | -89.98540 | 335 ft | 7 kts | 125° |
| 2026-05-04 03:28 | 35.02653 | -89.98503 | 332 ft | 6 kts | 86° |
| 2026-05-04 03:28 | 35.02667 | -89.98476 | 335 ft | 2 kts | 38° |
| 2026-05-04 03:29 | 35.02692 | -89.98462 | 333 ft | 6 kts | 13° |
| 2026-05-04 03:29 | 35.02745 | -89.98463 | 335 ft | 10 kts | 357° |
| 2026-05-04 03:29 | 35.02822 | -89.98467 | 335 ft | 13 kts | 358° |
| 2026-05-04 03:29 | 35.02917 | -89.98468 | 335 ft | 15 kts | 359° |
| 2026-05-04 03:30 | 35.03029 | -89.98470 | 335 ft | 17 kts | 359° |
| 2026-05-04 03:30 | 35.03155 | -89.98472 | 335 ft | 19 kts | 359° |
| 2026-05-04 03:30 | 35.03298 | -89.98475 | 335 ft | 21 kts | 359° |
| 2026-05-04 03:30 | 35.03455 | -89.98478 | 335 ft | 23 kts | 359° |
| 2026-05-04 03:31 | 35.03619 | -89.98483 | 336 ft | 24 kts | 359° |
| 2026-05-04 03:31 | 35.03760 | -89.98490 | 335 ft | 19 kts | 357° |
| 2026-05-04 03:31 | 35.03898 | -89.98497 | 335 ft | 21 kts | 358° |
| 2026-05-04 03:31 | 35.04049 | -89.98496 | 335 ft | 23 kts | 0° |
| 2026-05-04 03:32 | 35.04215 | -89.98498 | 335 ft | 24 kts | 359° |
| 2026-05-04 03:32 | 35.04350 | -89.98502 | 335 ft | 19 kts | 359° |
| 2026-05-04 03:32 | 35.04486 | -89.98505 | 336 ft | 21 kts | 359° |
| 2026-05-04 03:32 | 35.04640 | -89.98508 | 335 ft | 23 kts | 359° |
| 2026-05-04 03:33 | 35.04806 | -89.98512 | 335 ft | 25 kts | 359° |
| 2026-05-04 03:33 | 35.04944 | -89.98515 | 335 ft | 18 kts | 359° |
| 2026-05-04 03:33 | 35.05078 | -89.98516 | 333 ft | 20 kts | 360° |
| 2026-05-04 03:33 | 35.05228 | -89.98513 | 334 ft | 23 kts | 1° |
| 2026-05-04 03:34 | 35.05393 | -89.98509 | 335 ft | 25 kts | 1° |
| 2026-05-04 03:34 | 35.05572 | -89.98507 | 335 ft | 27 kts | 360° |
| 2026-05-04 03:34 | 35.05749 | -89.98508 | 333 ft | 26 kts | 0° |
| 2026-05-04 03:34 | 35.05902 | -89.98510 | 334 ft | 19 kts | 357° |
| 2026-05-04 03:35 | 35.06008 | -89.98493 | 333 ft | 5 kts | 37° |
| 2026-05-04 03:35 | 35.06019 | -89.98457 | 335 ft | 6 kts | 77° |
| 2026-05-04 03:35 | 35.06022 | -89.98397 | 334 ft | 9 kts | 90° |
| 2026-05-04 03:35 | 35.06020 | -89.98312 | 335 ft | 11 kts | 91° |
| 2026-05-04 03:36 | 35.06020 | -89.98215 | 335 ft | 12 kts | 92° |
| 2026-05-04 03:36 | 35.06018 | -89.98142 | 335 ft | 14 kts | 92° |
| 2026-05-04 03:36 | 35.06013 | -89.98009 | 337 ft | 17 kts | 93° |
| 2026-05-04 03:36 | 35.06007 | -89.97854 | 338 ft | 19 kts | 92° |
| 2026-05-04 03:37 | 35.05987 | -89.97687 | 335 ft | 21 kts | 101° |
| 2026-05-04 03:37 | 35.05953 | -89.97535 | 337 ft | 15 kts | 104° |
| 2026-05-04 03:37 | 35.05943 | -89.97460 | 338 ft | 8 kts | 92° |
| 2026-05-04 03:37 | 35.05946 | -89.97447 | 335 ft | 0 kts | 65° |
| 2026-05-04 03:38 | 35.05951 | -89.97444 | 336 ft | 1 kts | 39° |
| 2026-05-04 03:38 | 35.05974 | -89.97435 | 334 ft | 5 kts | 14° |
| 2026-05-04 03:38 | 35.06011 | -89.97431 | 333 ft | 6 kts | 2° |
| 2026-05-04 03:38 | 35.06025 | -89.97431 | 333 ft | 2 kts | 2° |
| 2026-05-04 03:39 | 35.06027 | -89.97431 | 333 ft | 0 kts | 2° |